createdAt,value
2023-02-06T00:04:27.413Z,17
2023-02-06T00:14:32.965Z,16
2023-02-06T00:24:39.536Z,16
2023-02-06T00:34:43.948Z,15
2023-02-06T00:44:48.489Z,17
2023-02-06T00:54:53.525Z,15
2023-02-06T01:04:59.573Z,17
2023-02-06T01:15:03.822Z,20
2023-02-06T01:25:07.995Z,17
2023-02-06T01:35:12.713Z,20
2023-02-06T01:45:18.198Z,22
2023-02-06T01:55:24.064Z,21
2023-02-06T02:05:27.918Z,22
2023-02-06T02:15:34.053Z,22
2023-02-06T02:25:40.389Z,20
2023-02-06T02:35:45.043Z,22
2023-02-06T02:45:51.661Z,22
2023-02-06T02:55:56.315Z,22
2023-02-06T03:06:00.712Z,20
2023-02-06T03:16:08.650Z,21
2023-02-06T03:26:14.713Z,22
2023-02-06T03:36:19.403Z,22
2023-02-06T03:46:25.780Z,22
2023-02-06T03:56:31.663Z,21
2023-02-06T04:06:39.049Z,20
2023-02-06T04:16:46.088Z,21
2023-02-06T04:26:51.201Z,20
2023-02-06T04:36:58.435Z,20
2023-02-06T04:47:02.834Z,23
2023-02-06T04:57:08.760Z,18
2023-02-06T05:07:15.499Z,16
2023-02-06T05:17:20.264Z,18
2023-02-06T05:27:24.505Z,17
2023-02-06T05:37:30.324Z,15
2023-02-06T05:47:34.836Z,17
2023-02-06T05:57:41.132Z,15
2023-02-06T06:07:45.957Z,16
2023-02-06T06:17:49.940Z,21
2023-02-06T06:27:55.280Z,23
2023-02-06T06:37:59.032Z,21
2023-02-06T06:48:05.619Z,21
2023-02-06T06:58:10.525Z,23
2023-02-06T07:08:16.443Z,21
2023-02-06T07:18:22.461Z,19
2023-02-06T07:28:28.917Z,17
2023-02-06T07:38:34.229Z,19
2023-02-06T07:48:39.738Z,22
2023-02-06T07:58:46.091Z,24
2023-02-06T08:08:50.841Z,22
2023-02-06T08:18:55.397Z,14
2023-02-06T08:29:00.172Z,14
2023-02-06T08:39:03.845Z,17
2023-02-06T08:49:09.544Z,21
2023-02-06T08:59:14.670Z,17
2023-02-06T09:09:20.603Z,17
2023-02-06T09:19:28.497Z,19
2023-02-06T09:29:32.051Z,16
2023-02-06T09:39:37.039Z,17
2023-02-06T09:49:41.968Z,19
2023-02-06T09:59:48.270Z,19
2023-02-06T10:09:52.340Z,18
2023-02-06T10:19:59.495Z,16
2023-02-06T10:30:05.238Z,16
2023-02-06T10:40:10.659Z,18
2023-02-06T10:50:17.373Z,19
2023-02-06T11:00:25.672Z,15
2023-02-06T11:10:30.979Z,15
2023-02-06T11:20:39.326Z,19
2023-02-06T11:30:44.636Z,15
2023-02-06T11:40:49.297Z,17
2023-02-06T11:50:56.534Z,17
2023-02-06T12:01:00.845Z,19
2023-02-06T12:11:07.573Z,14
2023-02-06T12:21:13.538Z,21
2023-02-06T12:31:19.010Z,16
2023-02-06T12:41:25.333Z,15
2023-02-06T12:51:32.268Z,17
2023-02-06T13:01:45.472Z,16
2023-02-06T13:11:45.047Z,15
2023-02-06T13:21:51.450Z,16
2023-02-06T13:31:59.838Z,16
2023-02-06T13:42:00.841Z,13
2023-02-06T13:52:07.231Z,16
2023-02-06T14:02:13.151Z,13
2023-02-06T14:12:17.556Z,15
2023-02-06T14:22:22.696Z,15
2023-02-06T14:32:32.780Z,15
2023-02-06T14:42:34.834Z,16
2023-02-06T14:52:42.001Z,12
2023-02-06T15:02:47.039Z,16
2023-02-06T15:12:51.922Z,16
2023-02-06T15:23:05.057Z,15
2023-02-06T15:33:11.310Z,15
2023-02-06T15:43:18.010Z,16
2023-02-06T15:53:24.536Z,15
2023-02-06T16:03:28.676Z,27
2023-02-06T16:13:34.461Z,19
2023-02-06T16:23:39.917Z,17
2023-02-06T16:33:45.824Z,20
2023-02-06T16:43:51.588Z,18
2023-02-06T16:53:57.197Z,17
2023-02-06T17:04:03.599Z,18
2023-02-06T17:14:08.867Z,16
2023-02-06T17:24:16.607Z,15
2023-02-06T17:34:20.610Z,18
2023-02-06T17:44:25.377Z,18
2023-02-06T17:54:30.311Z,16
2023-02-06T18:04:36.881Z,21
2023-02-06T18:14:43.704Z,14
2023-02-06T18:24:49.172Z,17
2023-02-06T18:34:55.574Z,17
2023-02-06T18:44:56.879Z,14
2023-02-06T18:55:02.212Z,13
2023-02-06T19:05:09.264Z,15
2023-02-06T19:15:15.390Z,15
2023-02-06T19:25:21.113Z,14
2023-02-06T19:35:26.493Z,14
2023-02-06T19:45:32.576Z,15
2023-02-06T19:55:37.052Z,15
2023-02-06T20:05:44.200Z,15
2023-02-06T20:15:47.421Z,15
2023-02-06T20:25:52.757Z,16
2023-02-06T20:35:59.411Z,20
2023-02-06T20:46:05.541Z,19
2023-02-06T20:56:13.480Z,17
2023-02-06T21:06:18.052Z,17
2023-02-06T21:16:23.892Z,17
2023-02-06T21:26:29.966Z,16
2023-02-06T21:36:35.134Z,18
2023-02-06T21:46:41.007Z,18
2023-02-06T21:56:46.251Z,22
2023-02-06T22:06:52.440Z,20
2023-02-06T22:16:57.562Z,17
2023-02-06T22:27:01.392Z,17
2023-02-06T22:37:07.094Z,37
2023-02-06T22:47:14.258Z,49
2023-02-06T22:57:19.747Z,108
2023-02-06T23:07:25.066Z,105
2023-02-06T23:17:29.833Z,59
2023-02-06T23:27:35.820Z,53
2023-02-06T23:37:43.169Z,18
2023-02-06T23:47:48.353Z,21
2023-02-06T23:57:52.195Z,20
